Terminal Aerodrome Forecast
Issued by NWS

Home | Current Version | Previous Version | Text Only | Print | Product List | Glossary On
Versions: 1 2 3 4 5 6 7 8 9 10 11 12 13 14 15 16 17 18 19 20
000
FTUS41 KBGM 281720
TAFRME
TAF
KRME 281720Z 2818/2918 27011G18KT P6SM BKN040
     FM282300 VRB04KT P6SM SCT070
     FM290300 00000KT P6SM BKN150
     FM291500 11007KT P6SM SCT060=

USA.gov is the U.S. government's official web portal to all federal, state and local government web resources and services.